Time;durP1;ratioP1;P1;durP2;ratioP2;P2;SDS_P1;SDS_P2;PMS_P1;PMS_P2;Temp;Humidity;BMP_temperature;BMP_pressure;BME280_temperature;BME280_humidity;BME280_pressure;Samples;Min_cycle;Max_cycle;Signal;HPM_P1;HPM_P2
2023/01/02 00:00:24;;;;;;;8.80;3.63;;;10.20;30.20;;;;;;5044678;28;20458;-71
2023/01/02 00:02:52;;;;;;;9.03;5.37;;;10.20;30.30;;;;;;5042734;28;20545;-71
2023/01/02 00:05:19;;;;;;;7.80;4.37;;;10.30;30.30;;;;;;5045389;28;20454;-72
2023/01/02 00:07:46;;;;;;;10.53;5.90;;;10.30;30.30;;;;;;5037699;28;20504;-72
2023/01/02 00:10:13;;;;;;;7.73;5.00;;;10.30;30.20;;;;;;5038311;28;20961;-71
2023/01/02 00:12:40;;;;;;;9.40;4.30;;;10.30;30.10;;;;;;5040688;28;20849;-71
2023/01/02 00:15:07;;;;;;;8.33;5.20;;;10.30;30.00;;;;;;5032944;28;20583;-72
2023/01/02 00:17:34;;;;;;;9.47;5.47;;;10.30;29.90;;;;;;5038358;28;20895;-71
2023/01/02 00:20:02;;;;;;;8.40;4.83;;;10.20;29.80;;;;;;5039615;28;20454;-71
2023/01/02 00:22:29;;;;;;;8.60;5.60;;;10.20;29.80;;;;;;5038328;28;20458;-72
2023/01/02 00:24:56;;;;;;;9.00;4.90;;;10.20;29.70;;;;;;5034591;28;20454;-71
2023/01/02 00:27:22;;;;;;;15.03;5.33;;;10.10;29.60;;;;;;5034949;28;20481;-71
2023/01/02 00:29:49;;;;;;;8.00;5.00;;;10.00;29.80;;;;;;5039972;28;20468;-71
2023/01/02 00:32:16;;;;;;;14.03;4.93;;;9.90;30.00;;;;;;5037105;28;20466;-71
2023/01/02 00:34:43;;;;;;;9.00;5.37;;;9.80;30.20;;;;;;5038390;28;20517;-71
2023/01/02 00:37:11;;;;;;;9.20;5.50;;;9.80;30.40;;;;;;5036113;28;20489;-71
2023/01/02 00:39:38;;;;;;;8.93;5.63;;;9.90;30.40;;;;;;5039223;28;20867;-71
2023/01/02 00:42:05;;;;;;;10.00;5.40;;;9.90;30.40;;;;;;5039481;28;20465;-71
2023/01/02 00:44:32;;;;;;;11.67;6.90;;;9.80;30.30;;;;;;5035562;28;20700;-72
2023/01/02 00:46:59;;;;;;;11.90;7.00;;;9.80;30.40;;;;;;5038199;28;20472;-71
2023/01/02 00:49:25;;;;;;;9.80;6.27;;;9.80;30.50;;;;;;5037478;28;20462;-71
2023/01/02 00:51:52;;;;;;;9.97;5.93;;;9.80;30.60;;;;;;5037505;28;20895;-70
2023/01/02 00:54:20;;;;;;;10.37;5.80;;;9.80;30.70;;;;;;5039456;28;20798;-71
2023/01/02 00:56:47;;;;;;;7.53;4.37;;;9.80;30.80;;;;;;5039315;28;20489;-71
2023/01/02 00:59:14;;;;;;;8.23;4.43;;;9.80;30.80;;;;;;5035431;28;20468;-71
2023/01/02 01:01:41;;;;;;;8.67;4.73;;;9.80;30.80;;;;;;5037602;28;21121;-70
2023/01/02 01:04:08;;;;;;;8.60;4.53;;;9.90;30.80;;;;;;5034899;28;20836;-71
2023/01/02 01:06:35;;;;;;;11.60;5.73;;;9.80;30.80;;;;;;5038532;28;20935;-71
2023/01/02 01:09:02;;;;;;;20.20;10.80;;;9.80;30.80;;;;;;5039238;28;20466;-71
2023/01/02 01:11:30;;;;;;;15.10;7.20;;;9.80;30.80;;;;;;5037837;28;20458;-71
2023/01/02 01:13:57;;;;;;;11.53;5.63;;;9.80;30.80;;;;;;5034498;28;20500;-70
2023/01/02 01:16:24;;;;;;;9.80;5.10;;;9.70;30.90;;;;;;5036440;28;20496;-70
2023/01/02 01:18:55;;;;;;;9.40;5.33;;;9.70;30.90;;;;;;5034910;28;20470;-71
2023/01/02 01:21:22;;;;;;;8.63;4.50;;;9.70;31.10;;;;;;5043690;28;20454;-70
2023/01/02 01:23:50;;;;;;;10.10;4.77;;;9.70;31.00;;;;;;5039568;28;20468;-70
2023/01/02 01:26:17;;;;;;;8.80;4.40;;;9.70;31.10;;;;;;5041675;28;20477;-70
2023/01/02 01:28:46;;;;;;;7.30;3.70;;;9.60;31.30;;;;;;5042998;28;20464;-71
2023/01/02 01:33:42;;;;;;;8.10;3.57;;;9.60;31.30;;;;;;5026872;28;21068;-70
2023/01/02 01:36:11;;;;;;;6.37;2.97;;;9.60;31.30;;;;;;5041738;28;20493;-70
2023/01/02 01:38:38;;;;;;;7.73;3.83;;;9.60;31.40;;;;;;5034742;28;20816;-70
2023/01/02 01:41:06;;;;;;;6.30;2.93;;;9.60;31.40;;;;;;5029716;28;20872;-70
2023/01/02 01:43:41;;;;;;;7.70;3.97;;;9.70;31.60;;;;;;5030934;28;20458;-70
2023/01/02 01:46:17;;;;;;;6.43;3.60;;;9.70;31.60;;;;;;5029579;28;20474;-71
2023/01/02 01:48:45;;;;;;;7.20;4.10;;;9.70;31.60;;;;;;5029422;28;20544;-70
2023/01/02 01:51:13;;;;;;;9.10;3.97;;;9.80;31.40;;;;;;5026755;28;20458;-70
2023/01/02 01:53:41;;;;;;;8.50;4.50;;;9.80;31.30;;;;;;5029084;28;20459;-70
2023/01/02 01:56:10;;;;;;;8.27;4.80;;;9.80;31.10;;;;;;5028629;28;21080;-70
2023/01/02 01:58:42;;;;;;;7.90;5.00;;;9.80;31.00;;;;;;5029486;28;20561;-70
2023/01/02 02:01:12;;;;;;;9.07;4.73;;;9.80;30.90;;;;;;5027982;28;20482;-70
2023/01/02 02:03:42;;;;;;;13.23;5.07;;;9.70;30.80;;;;;;5029084;28;20461;-70
2023/01/02 02:06:09;;;;;;;9.00;5.57;;;9.70;30.80;;;;;;5029004;28;20917;-70
2023/01/02 02:08:41;;;;;;;10.90;5.10;;;9.70;30.80;;;;;;5032195;28;20462;-69
2023/01/02 02:11:09;;;;;;;7.07;4.07;;;9.60;30.80;;;;;;5030297;28;20455;-70
2023/01/02 02:13:36;;;;;;;8.03;4.57;;;9.60;30.80;;;;;;5028752;28;20542;-70
2023/01/02 02:16:18;;;;;;;8.50;4.80;;;9.50;30.90;;;;;;5028508;28;20486;-70
2023/01/02 02:19:15;;;;;;;8.07;4.73;;;9.40;31.00;;;;;;5029054;28;20465;-70
2023/01/02 02:22:01;;;;;;;9.30;4.80;;;9.40;31.20;;;;;;5028642;28;20469;-70
2023/01/02 02:25:10;;;;;;;9.10;5.30;;;9.30;31.30;;;;;;5016101;28;20675;-70
2023/01/02 02:28:07;;;;;;;8.13;4.90;;;9.20;31.50;;;;;;5027419;28;20847;-70
2023/01/02 02:30:40;;;;;;;11.43;5.80;;;9.20;31.50;;;;;;5013899;28;20489;-70
2023/01/02 02:33:27;;;;;;;8.60;5.03;;;9.10;31.40;;;;;;5032135;28;20470;-70
2023/01/02 02:36:03;;;;;;;7.90;4.70;;;9.10;31.60;;;;;;5027817;28;20518;-70
2023/01/02 02:38:59;;;;;;;8.17;5.07;;;9.00;31.70;;;;;;5027137;28;20491;-70
2023/01/02 02:41:32;;;;;;;7.40;5.00;;;9.00;31.90;;;;;;5020643;28;20463;-70
2023/01/02 02:44:06;;;;;;;11.73;5.53;;;9.00;31.90;;;;;;5028355;28;20869;-70
2023/01/02 02:46:41;;;;;;;8.63;4.63;;;9.00;32.00;;;;;;5016690;28;21017;-70
2023/01/02 02:49:14;;;;;;;8.87;5.43;;;9.00;32.00;;;;;;5013962;28;20558;-70
2023/01/02 02:51:47;;;;;;;8.13;5.60;;;9.00;31.90;;;;;;5034206;28;20460;-70
2023/01/02 02:54:19;;;;;;;8.13;4.50;;;9.00;31.90;;;;;;5023603;28;20451;-70
2023/01/02 02:56:48;;;;;;;7.27;4.10;;;9.10;31.90;;;;;;5023188;28;21014;-70
2023/01/02 02:59:15;;;;;;;8.10;4.63;;;9.10;31.90;;;;;;5028458;28;20455;-70
2023/01/02 03:01:43;;;;;;;9.90;4.77;;;9.10;31.90;;;;;;5026895;28;20780;-70
2023/01/02 03:04:18;;;;;;;9.90;4.40;;;9.00;32.00;;;;;;5029469;28;20550;-70
2023/01/02 03:06:54;;;;;;;7.57;4.33;;;9.10;32.20;;;;;;5031348;28;20477;-70
2023/01/02 03:09:31;;;;;;;8.00;4.53;;;9.10;32.30;;;;;;5023084;28;20858;-70
2023/01/02 03:12:07;;;;;;;9.20;4.97;;;9.10;32.30;;;;;;5027369;28;20457;-70
2023/01/02 03:14:42;;;;;;;10.60;4.63;;;9.10;32.30;;;;;;5032521;28;20449;-70
2023/01/02 03:17:19;;;;;;;8.27;4.43;;;9.10;32.40;;;;;;5033368;28;20478;-70
2023/01/02 03:19:52;;;;;;;8.67;4.80;;;9.10;32.50;;;;;;5027858;28;20508;-70
2023/01/02 03:22:23;;;;;;;8.77;4.50;;;9.10;32.50;;;;;;5022033;28;20450;-70
2023/01/02 03:24:53;;;;;;;7.50;4.20;;;9.10;32.50;;;;;;5029366;28;20491;-70
2023/01/02 03:27:24;;;;;;;7.70;4.20;;;9.10;32.60;;;;;;5026710;28;20876;-70
2023/01/02 03:29:57;;;;;;;7.90;4.10;;;9.10;32.70;;;;;;5007809;28;20440;-70
2023/01/02 03:32:29;;;;;;;8.90;4.83;;;9.10;32.60;;;;;;5006858;28;20506;-70
2023/01/02 03:34:58;;;;;;;7.50;4.10;;;9.10;32.70;;;;;;5023524;28;20462;-70
2023/01/02 03:37:30;;;;;;;7.43;4.40;;;9.10;32.70;;;;;;5025585;28;20471;-70
2023/01/02 03:40:02;;;;;;;11.67;4.63;;;9.00;32.70;;;;;;5024596;28;20462;-70
2023/01/02 03:42:31;;;;;;;8.23;4.23;;;9.00;33.00;;;;;;5026859;28;20542;-70
2023/01/02 03:45:02;;;;;;;8.20;4.50;;;9.00;33.10;;;;;;5021485;28;20469;-70
2023/01/02 03:47:37;;;;;;;8.87;4.80;;;9.00;33.20;;;;;;5028040;28;20467;-70
2023/01/02 03:50:11;;;;;;;8.47;4.13;;;9.00;33.50;;;;;;5027367;28;20459;-70
2023/01/02 03:52:38;;;;;;;6.97;4.00;;;9.00;33.80;;;;;;5027310;28;20466;-70
2023/01/02 03:55:06;;;;;;;7.80;4.40;;;9.00;33.80;;;;;;5026654;28;20455;-70
2023/01/02 03:57:40;;;;;;;8.80;3.53;;;9.00;33.90;;;;;;5025442;28;20515;-70
2023/01/02 04:00:10;;;;;;;9.30;4.70;;;9.00;34.10;;;;;;5026964;28;20945;-70
2023/01/02 04:02:44;;;;;;;8.50;4.50;;;9.00;34.00;;;;;;5028230;28;20999;-70
2023/01/02 04:05:19;;;;;;;10.40;4.63;;;9.00;34.00;;;;;;5032489;28;20533;-70
2023/01/02 04:07:51;;;;;;;8.70;4.00;;;9.00;34.00;;;;;;5045454;28;20470;-69
2023/01/02 04:10:19;;;;;;;9.80;4.40;;;9.00;33.90;;;;;;5050182;28;20817;-69
2023/01/02 04:12:50;;;;;;;8.07;4.33;;;9.00;33.90;;;;;;5050194;28;20541;-70
2023/01/02 04:15:19;;;;;;;9.27;4.33;;;9.00;34.00;;;;;;5034080;28;20534;-69
2023/01/02 04:17:54;;;;;;;8.13;3.50;;;8.90;34.20;;;;;;5029999;28;20486;-69
2023/01/02 04:20:23;;;;;;;7.63;3.93;;;8.90;34.30;;;;;;5029886;28;20435;-69
2023/01/02 04:22:56;;;;;;;8.30;4.00;;;8.90;34.30;;;;;;5016898;28;20524;-69
2023/01/02 04:25:30;;;;;;;7.33;3.50;;;9.00;34.60;;;;;;5030315;28;20447;-69
2023/01/02 04:28:01;;;;;;;7.40;3.50;;;9.00;34.70;;;;;;5029278;28;20832;-71
2023/01/02 04:30:30;;;;;;;9.23;3.83;;;9.00;34.90;;;;;;5030108;28;20435;-70
2023/01/02 04:33:05;;;;;;;8.97;3.90;;;9.00;34.90;;;;;;5029189;28;20801;-70
2023/01/02 04:35:32;;;;;;;8.77;3.57;;;9.10;35.00;;;;;;5029829;28;20815;-69
2023/01/02 04:38:06;;;;;;;17.03;4.10;;;9.10;35.00;;;;;;5029964;28;21019;-69
2023/01/02 04:40:36;;;;;;;7.00;3.73;;;9.10;35.00;;;;;;5031932;28;20467;-70
2023/01/02 04:43:05;;;;;;;7.60;3.43;;;9.20;34.70;;;;;;5011105;28;20460;-70
2023/01/02 04:45:32;;;;;;;7.90;4.07;;;9.10;34.60;;;;;;5009980;28;20812;-70
2023/01/02 04:48:00;;;;;;;7.13;3.10;;;9.10;34.50;;;;;;5017268;28;20483;-69
2023/01/02 04:50:27;;;;;;;6.37;3.47;;;9.20;34.60;;;;;;5029132;28;20455;-70
2023/01/02 04:52:53;;;;;;;7.30;3.13;;;9.10;34.70;;;;;;5029734;28;20479;-70
2023/01/02 04:55:20;;;;;;;7.90;3.40;;;9.30;34.70;;;;;;5033809;28;20454;-70
2023/01/02 04:57:47;;;;;;;7.40;3.50;;;9.20;34.70;;;;;;5033385;28;20517;-70
2023/01/02 05:00:15;;;;;;;6.03;2.83;;;9.30;34.70;;;;;;5034379;28;20538;-70
2023/01/02 05:02:41;;;;;;;11.57;4.80;;;9.30;34.60;;;;;;5032676;28;20501;-70
2023/01/02 05:05:10;;;;;;;7.83;3.00;;;9.30;34.60;;;;;;5034015;28;20455;-70
2023/01/02 05:07:37;;;;;;;7.73;3.63;;;9.40;34.60;;;;;;5031826;28;20475;-70
2023/01/02 05:10:05;;;;;;;7.37;3.07;;;9.40;34.70;;;;;;5033175;28;20457;-69
2023/01/02 05:12:34;;;;;;;9.40;3.23;;;9.40;34.60;;;;;;5031115;28;20486;-70
2023/01/02 05:15:01;;;;;;;5.90;2.67;;;9.50;34.70;;;;;;5017788;28;20556;-70
2023/01/02 05:17:28;;;;;;;6.33;3.53;;;9.50;34.30;;;;;;5018655;28;20479;-70
2023/01/02 05:19:55;;;;;;;6.00;2.80;;;9.50;34.40;;;;;;5020512;28;20459;-70
2023/01/02 05:25:08;;;;;;;5.83;2.73;;;9.50;34.50;;;;;;5019476;28;20548;-70
2023/01/02 05:27:35;;;;;;;6.40;2.93;;;9.60;34.50;;;;;;5017698;28;20525;-70
2023/01/02 05:30:01;;;;;;;5.73;2.60;;;9.60;34.30;;;;;;5021799;28;20458;-70
2023/01/02 05:32:28;;;;;;;7.00;2.87;;;9.70;34.30;;;;;;5015444;28;20510;-70
2023/01/02 05:34:55;;;;;;;5.37;2.90;;;9.70;34.20;;;;;;5020043;28;20987;-70
2023/01/02 05:37:23;;;;;;;5.80;2.63;;;9.70;34.10;;;;;;5019262;28;22864;-70
2023/01/02 05:39:50;;;;;;;7.73;3.00;;;9.70;34.00;;;;;;5022258;28;20471;-70
2023/01/02 05:42:17;;;;;;;6.83;2.57;;;9.70;33.80;;;;;;5019784;28;20468;-70
2023/01/02 05:44:44;;;;;;;9.33;2.53;;;9.70;33.80;;;;;;5020794;28;20712;-70
2023/01/02 05:47:10;;;;;;;5.90;2.63;;;9.70;33.60;;;;;;5014584;28;20856;-70
2023/01/02 05:49:37;;;;;;;6.30;2.50;;;9.70;33.40;;;;;;5017915;28;20842;-70
2023/01/02 05:52:04;;;;;;;6.90;2.80;;;9.70;33.20;;;;;;5020626;28;20957;-70
2023/01/02 05:54:32;;;;;;;6.20;2.30;;;9.70;32.90;;;;;;5017542;28;20832;-70
2023/01/02 05:56:59;;;;;;;5.40;2.53;;;9.70;32.80;;;;;;5021088;28;20483;-70
2023/01/02 05:59:26;;;;;;;7.30;2.73;;;9.70;32.70;;;;;;5021311;28;21732;-70
2023/01/02 06:01:52;;;;;;;7.10;2.17;;;9.80;32.50;;;;;;5016934;28;20485;-71
2023/01/02 06:04:19;;;;;;;5.87;2.60;;;9.70;32.40;;;;;;5019256;28;20553;-70
2023/01/02 06:06:48;;;;;;;6.83;2.57;;;9.80;32.30;;;;;;5015681;28;20880;-70
2023/01/02 06:09:16;;;;;;;6.87;2.67;;;9.80;32.10;;;;;;5015024;28;21045;-70
2023/01/02 06:11:44;;;;;;;6.60;2.50;;;9.70;32.50;;;;;;5019839;28;20459;-70
2023/01/02 06:14:11;;;;;;;6.50;2.73;;;9.80;31.70;;;;;;5021155;28;20849;-70
2023/01/02 06:16:39;;;;;;;6.43;3.07;;;9.70;31.50;;;;;;5018127;28;20483;-70
2023/01/02 06:19:07;;;;;;;6.53;2.77;;;9.70;31.30;;;;;;5014163;28;20471;-70
2023/01/02 06:21:34;;;;;;;6.53;3.33;;;9.70;31.10;;;;;;5018932;28;20736;-70
2023/01/02 06:24:01;;;;;;;8.87;3.47;;;9.70;30.90;;;;;;5018044;28;20543;-70
2023/01/02 06:26:28;;;;;;;7.70;3.37;;;9.60;30.70;;;;;;5018613;28;20486;-70
2023/01/02 06:28:57;;;;;;;7.37;3.10;;;9.60;30.70;;;;;;5019733;28;20463;-70
2023/01/02 06:31:26;;;;;;;5.80;2.80;;;9.50;31.20;;;;;;5018114;28;20875;-70
2023/01/02 06:33:56;;;;;;;9.00;3.37;;;9.60;30.70;;;;;;5018777;28;20470;-70
2023/01/02 06:36:23;;;;;;;6.33;3.10;;;9.50;30.80;;;;;;5011702;28;20480;-70
2023/01/02 06:38:50;;;;;;;7.60;3.70;;;9.40;31.00;;;;;;5018774;28;20540;-70
2023/01/02 06:41:17;;;;;;;6.10;3.00;;;9.40;31.10;;;;;;5018465;28;20474;-70
2023/01/02 06:43:45;;;;;;;7.10;3.83;;;9.40;31.10;;;;;;5021087;28;20481;-70
2023/01/02 06:46:15;;;;;;;5.67;3.03;;;9.30;31.10;;;;;;5016762;28;21054;-70
2023/01/02 06:48:42;;;;;;;7.80;3.93;;;9.30;31.20;;;;;;5019551;28;20489;-70
2023/01/02 06:51:11;;;;;;;6.10;3.10;;;9.30;31.30;;;;;;5016500;28;20463;-70
2023/01/02 06:53:39;;;;;;;7.40;3.30;;;9.30;31.60;;;;;;5019685;28;20973;-70
2023/01/02 06:56:08;;;;;;;6.80;3.30;;;9.30;31.80;;;;;;5013774;28;20481;-70
2023/01/02 06:58:36;;;;;;;6.57;2.73;;;9.30;32.10;;;;;;5017674;28;20483;-70
2023/01/02 07:01:04;;;;;;;7.90;3.30;;;9.30;32.30;;;;;;5015113;28;20835;-70
2023/01/02 07:03:32;;;;;;;9.23;3.50;;;9.30;32.50;;;;;;5015927;28;20466;-70
2023/01/02 07:06:02;;;;;;;7.47;3.30;;;9.30;32.60;;;;;;5020717;28;20565;-70
2023/01/02 07:08:30;;;;;;;7.83;3.50;;;9.30;32.70;;;;;;5017376;28;20463;-70
2023/01/02 07:11:07;;;;;;;5.83;2.70;;;9.30;32.70;;;;;;5013774;28;20540;-70
2023/01/02 07:13:34;;;;;;;9.37;3.30;;;9.30;32.80;;;;;;5016413;28;20619;-69
2023/01/02 07:16:03;;;;;;;7.50;3.57;;;9.30;32.60;;;;;;5018488;28;20479;-70
2023/01/02 07:18:31;;;;;;;7.37;3.07;;;9.30;32.50;;;;;;5013609;28;20509;-69
2023/01/02 07:20:58;;;;;;;6.77;3.00;;;9.40;32.50;;;;;;5016104;28;20471;-69
2023/01/02 07:23:25;;;;;;;7.13;2.67;;;9.40;32.50;;;;;;5022905;28;20463;-70
2023/01/02 07:25:54;;;;;;;5.90;2.80;;;9.40;32.40;;;;;;5013251;28;20467;-70
2023/01/02 07:28:21;;;;;;;4.80;2.20;;;9.50;32.50;;;;;;5013637;28;21077;-69
2023/01/02 07:30:48;;;;;;;7.27;3.00;;;9.60;32.40;;;;;;5017714;28;20471;-70
2023/01/02 07:33:15;;;;;;;7.40;2.90;;;9.70;32.40;;;;;;5016744;28;20474;-69
2023/01/02 07:35:44;;;;;;;6.33;3.20;;;9.80;32.30;;;;;;5019996;28;20459;-70
2023/01/02 07:38:11;;;;;;;8.23;3.23;;;9.90;32.20;;;;;;5013323;28;20524;-70
2023/01/02 07:40:38;;;;;;;6.63;2.73;;;10.00;32.00;;;;;;5015112;28;20468;-70
2023/01/02 07:43:04;;;;;;;5.60;2.83;;;10.10;31.80;;;;;;5017715;28;21007;-70
2023/01/02 07:45:32;;;;;;;5.30;2.37;;;10.30;31.30;;;;;;5017047;28;20473;-70
2023/01/02 07:47:59;;;;;;;7.30;2.97;;;10.30;31.30;;;;;;5016754;28;20482;-70
2023/01/02 07:50:26;;;;;;;6.47;2.93;;;10.50;31.10;;;;;;5014384;28;20455;-70
2023/01/02 07:52:54;;;;;;;9.37;2.93;;;10.60;30.90;;;;;;5021952;28;20474;-71
2023/01/02 07:55:21;;;;;;;7.17;2.93;;;10.80;30.70;;;;;;5019729;28;21013;-71
2023/01/02 07:57:48;;;;;;;6.23;2.57;;;11.00;30.20;;;;;;5012407;28;20486;-71
2023/01/02 08:00:16;;;;;;;5.63;2.80;;;11.30;29.40;;;;;;5019607;28;20536;-71
2023/01/02 08:02:43;;;;;;;10.37;2.90;;;11.60;28.70;;;;;;5019398;28;21273;-71
2023/01/02 08:05:10;;;;;;;7.80;4.43;;;11.80;28.00;;;;;;5022230;28;20470;-71
2023/01/02 08:07:37;;;;;;;7.83;2.87;;;12.00;27.30;;;;;;5019406;28;21011;-71
2023/01/02 08:10:06;;;;;;;7.30;2.67;;;12.50;26.30;;;;;;4997840;28;20456;-70
2023/01/02 08:12:33;;;;;;;7.60;2.60;;;13.10;24.60;;;;;;5020023;28;20468;-71
2023/01/02 08:15:00;;;;;;;6.63;2.67;;;13.80;22.90;;;;;;5025941;28;20472;-71
2023/01/02 08:17:28;;;;;;;6.50;2.80;;;14.60;20.50;;;;;;5022667;28;20569;-71
2023/01/02 08:19:55;;;;;;;6.27;2.77;;;15.10;19.40;;;;;;5019064;28;20561;-71
2023/01/02 08:22:22;;;;;;;7.20;2.80;;;15.40;18.10;;;;;;5021544;28;20812;-71
2023/01/02 08:24:50;;;;;;;6.10;2.30;;;15.80;17.30;;;;;;5020957;28;20502;-70
2023/01/02 08:27:18;;;;;;;5.20;2.37;;;15.90;16.90;;;;;;5019705;28;20565;-71
2023/01/02 08:29:45;;;;;;;7.67;2.57;;;15.50;17.20;;;;;;5017637;28;20467;-71
2023/01/02 08:32:11;;;;;;;8.50;2.30;;;15.00;17.00;;;;;;5014544;28;20471;-71
2023/01/02 08:34:38;;;;;;;6.67;2.50;;;14.60;17.10;;;;;;5024600;28;20462;-71
2023/01/02 08:37:05;;;;;;;7.73;2.83;;;14.40;17.80;;;;;;5019681;28;20491;-71
2023/01/02 08:39:32;;;;;;;6.60;2.27;;;14.10;18.20;;;;;;5017529;28;20562;-71
2023/01/02 08:41:58;;;;;;;6.83;2.80;;;13.90;18.50;;;;;;5022272;28;20478;-71
2023/01/02 08:44:27;;;;;;;6.30;2.70;;;13.80;19.00;;;;;;5019694;28;20466;-71
2023/01/02 08:46:53;;;;;;;5.60;2.43;;;13.60;19.30;;;;;;5017254;28;20988;-71
2023/01/02 08:49:20;;;;;;;5.90;2.50;;;13.50;19.70;;;;;;5024520;28;20461;-71
2023/01/02 08:51:47;;;;;;;6.80;3.27;;;13.40;19.70;;;;;;5019810;28;20473;-71
2023/01/02 08:54:14;;;;;;;5.80;2.40;;;13.30;20.60;;;;;;5023462;28;20463;-71
2023/01/02 08:56:41;;;;;;;5.93;2.77;;;13.20;20.00;;;;;;5020391;28;20598;-71
2023/01/02 08:59:09;;;;;;;6.80;2.30;;;13.10;20.50;;;;;;5022003;28;20538;-71
2023/01/02 09:01:39;;;;;;;6.77;2.67;;;13.00;20.90;;;;;;5014778;28;20632;-70
2023/01/02 09:04:07;;;;;;;5.73;2.50;;;12.90;21.30;;;;;;5020451;28;20470;-70
2023/01/02 09:06:36;;;;;;;8.23;2.73;;;12.80;21.40;;;;;;5018287;28;20490;-71
2023/01/02 09:09:04;;;;;;;8.33;2.50;;;12.80;21.60;;;;;;5020359;28;20508;-70
2023/01/02 09:11:34;;;;;;;9.10;3.70;;;12.70;21.60;;;;;;5015078;28;20470;-71
2023/01/02 09:14:02;;;;;;;9.57;3.00;;;12.70;21.70;;;;;;5020700;28;20465;-71
2023/01/02 09:16:29;;;;;;;5.23;2.07;;;12.70;21.80;;;;;;5018938;28;20489;-71
2023/01/02 09:18:59;;;;;;;7.70;2.77;;;12.80;21.30;;;;;;5019502;28;20991;-71
2023/01/02 09:21:26;;;;;;;6.70;2.50;;;12.80;21.10;;;;;;5019964;28;20459;-70
2023/01/02 09:23:53;;;;;;;8.90;2.60;;;12.80;20.90;;;;;;5017173;28;20463;-71
2023/01/02 09:26:20;;;;;;;8.43;2.60;;;12.80;20.70;;;;;;5014370;28;20491;-71
2023/01/02 09:28:47;;;;;;;7.70;3.10;;;12.80;20.80;;;;;;5008770;28;20543;-71
2023/01/02 09:31:15;;;;;;;7.37;2.47;;;12.80;21.00;;;;;;5018745;28;20566;-71
2023/01/02 09:33:43;;;;;;;5.23;2.10;;;12.70;21.10;;;;;;5020285;28;20975;-71
2023/01/02 09:36:13;;;;;;;7.70;2.73;;;12.70;21.20;;;;;;5017202;28;20510;-71
2023/01/02 09:38:41;;;;;;;6.40;2.37;;;12.70;21.30;;;;;;5018029;28;20509;-71
2023/01/02 09:41:22;;;;;;;5.40;2.50;;;12.70;21.20;;;;;;5023390;28;20467;-71
2023/01/02 09:43:52;;;;;;;7.13;3.20;;;12.70;21.40;;;;;;5024013;28;20489;-71
2023/01/02 09:46:24;;;;;;;6.27;2.90;;;12.70;21.40;;;;;;5020842;28;20876;-71
2023/01/02 09:48:50;;;;;;;8.63;3.13;;;12.70;21.60;;;;;;5020657;28;20826;-71
2023/01/02 09:51:19;;;;;;;11.37;3.53;;;12.70;21.40;;;;;;5022443;28;20464;-71
2023/01/02 09:53:46;;;;;;;9.97;3.70;;;12.70;21.40;;;;;;5020639;28;20485;-71
2023/01/02 09:56:18;;;;;;;9.47;4.03;;;12.70;21.40;;;;;;5017120;28;20480;-71
2023/01/02 09:58:50;;;;;;;7.27;2.50;;;12.70;21.40;;;;;;5018889;28;21006;-71
2023/01/02 10:01:26;;;;;;;7.10;2.70;;;12.70;21.40;;;;;;5017587;28;20489;-70
2023/01/02 10:04:05;;;;;;;7.33;2.77;;;12.70;21.40;;;;;;5011437;28;20462;-71
2023/01/02 10:06:39;;;;;;;7.40;2.60;;;12.70;21.40;;;;;;5019660;28;20577;-72
2023/01/02 10:09:14;;;;;;;6.80;2.90;;;12.80;21.20;;;;;;5022039;28;20458;-72
2023/01/02 10:11:50;;;;;;;5.70;2.17;;;12.80;21.10;;;;;;5021061;28;20749;-72
2023/01/02 10:14:32;;;;;;;7.00;3.30;;;12.80;21.10;;;;;;5015700;28;20502;-72
2023/01/02 10:17:00;;;;;;;6.50;2.40;;;12.70;21.00;;;;;;5019704;28;20474;-72
2023/01/02 10:19:35;;;;;;;11.20;3.10;;;12.80;20.90;;;;;;5017746;28;20482;-72
2023/01/02 10:22:05;;;;;;;5.70;2.90;;;12.80;21.00;;;;;;5020718;28;21035;-72
2023/01/02 10:24:39;;;;;;;6.33;2.87;;;12.80;20.70;;;;;;5024467;28;20458;-72
2023/01/02 10:27:12;;;;;;;6.97;2.73;;;12.80;20.80;;;;;;5021681;28;20477;-71
2023/01/02 10:32:13;;;;;;;7.10;2.80;;;12.90;21.40;;;;;;5015216;28;20473;-64
2023/01/02 10:34:44;;;;;;;8.30;4.50;;;12.90;21.80;;;;;;5016166;28;20474;-68
2023/01/02 10:37:18;;;;;;;7.97;3.23;;;12.90;21.60;;;;;;5018516;28;20471;-66
2023/01/02 10:39:47;;;;;;;7.10;3.40;;;12.90;21.50;;;;;;5022015;28;20507;-64
2023/01/02 10:42:15;;;;;;;6.30;3.50;;;12.80;21.40;;;;;;5029616;28;20462;-67
2023/01/02 10:44:45;;;;;;;6.17;2.83;;;12.80;21.30;;;;;;5036451;28;20466;-69
2023/01/02 10:47:19;;;;;;;7.70;3.70;;;12.80;21.20;;;;;;5036665;28;20580;-67
2023/01/02 10:49:46;;;;;;;8.93;2.80;;;12.80;21.10;;;;;;5037202;28;20891;-67
2023/01/02 10:52:21;;;;;;;9.63;3.10;;;12.80;21.10;;;;;;5039134;28;20466;-67
2023/01/02 10:54:50;;;;;;;8.03;3.03;;;12.80;21.30;;;;;;5033055;28;20474;-66
2023/01/02 10:57:23;;;;;;;7.97;2.90;;;12.80;21.50;;;;;;5042238;28;20496;-70
2023/01/02 10:59:55;;;;;;;6.50;2.87;;;12.80;21.80;;;;;;5040674;28;20482;-71
2023/01/02 11:02:29;;;;;;;8.23;3.27;;;12.80;21.70;;;;;;5037380;28;20950;-67
2023/01/02 11:05:01;;;;;;;9.93;3.43;;;12.80;21.70;;;;;;5038577;28;20461;-68
2023/01/02 11:07:33;;;;;;;7.37;3.20;;;12.80;21.80;;;;;;5031412;28;20474;-68
2023/01/02 11:10:00;;;;;;;10.47;3.83;;;12.80;21.50;;;;;;5034357;28;20483;-65
2023/01/02 11:12:27;;;;;;;7.90;2.83;;;12.90;21.30;;;;;;5040746;28;20462;-63
2023/01/02 11:15:10;;;;;;;7.33;3.17;;;12.90;21.30;;;;;;5033635;28;20462;-64
2023/01/02 11:17:42;;;;;;;7.27;2.57;;;12.90;21.30;;;;;;5037058;28;20504;-65
2023/01/02 11:20:21;;;;;;;10.00;3.23;;;12.90;21.00;;;;;;5040821;28;20517;-62
2023/01/02 11:22:49;;;;;;;9.60;3.60;;;13.00;20.60;;;;;;5037453;28;20863;-71
2023/01/02 11:25:21;;;;;;;7.40;2.80;;;13.00;20.60;;;;;;5040155;28;20814;-62
2023/01/02 11:27:48;;;;;;;11.40;3.23;;;13.00;20.50;;;;;;5039999;28;20466;-62
2023/01/02 11:30:29;;;;;;;7.77;3.10;;;13.10;20.30;;;;;;5038538;28;21068;-62
2023/01/02 11:33:08;;;;;;;6.57;3.03;;;13.10;20.30;;;;;;5038805;28;20461;-62
2023/01/02 11:35:39;;;;;;;7.23;3.30;;;13.20;20.30;;;;;;5040805;28;20474;-63
2023/01/02 11:38:15;;;;;;;13.47;3.23;;;13.30;20.50;;;;;;5038149;28;20462;-63
2023/01/02 11:40:53;;;;;;;9.83;3.17;;;13.40;20.60;;;;;;5036555;28;20492;-63
2023/01/02 11:46:16;;;;;;;7.63;3.20;;;13.60;19.70;;;;;;5038314;28;20449;-69
2023/01/02 11:48:43;;;;;;;7.70;2.93;;;13.80;19.70;;;;;;5039040;28;20477;-70
2023/01/02 11:51:15;;;;;;;8.77;2.97;;;13.90;19.30;;;;;;5042715;28;20474;-66
2023/01/02 11:53:46;;;;;;;8.40;3.07;;;14.00;19.00;;;;;;5039348;28;20817;-68
2023/01/02 11:56:19;;;;;;;8.20;3.20;;;14.10;18.30;;;;;;5042540;28;20470;-67
2023/01/02 11:58:51;;;;;;;9.37;3.30;;;14.20;17.70;;;;;;5046160;28;20508;-67
2023/01/02 12:01:24;;;;;;;8.23;2.73;;;14.20;17.60;;;;;;5039471;28;21048;-67
2023/01/02 12:03:52;;;;;;;8.23;3.03;;;14.40;18.10;;;;;;5041355;28;20455;-69
2023/01/02 12:06:21;;;;;;;6.13;2.67;;;14.50;17.50;;;;;;5036910;28;20468;-66
2023/01/02 12:09:05;;;;;;;7.27;2.80;;;14.50;17.40;;;;;;5036729;28;20462;-64
2023/01/02 12:11:46;;;;;;;6.20;2.57;;;14.50;17.40;;;;;;5042717;28;20486;-66
2023/01/02 12:14:16;;;;;;;9.10;3.07;;;14.50;18.00;;;;;;5037929;28;20502;-64
2023/01/02 12:16:51;;;;;;;7.20;2.97;;;14.60;17.40;;;;;;5031618;28;20458;-68
2023/01/02 12:19:40;;;;;;;7.67;2.77;;;14.60;17.40;;;;;;5037169;28;21126;-68
2023/01/02 12:22:25;;;;;;;8.27;2.77;;;14.60;17.40;;;;;;5030094;28;20473;-67
2023/01/02 12:25:08;;;;;;;6.87;2.70;;;14.70;17.20;;;;;;5041183;28;21493;-67
2023/01/02 12:27:43;;;;;;;6.90;3.07;;;14.70;17.30;;;;;;5040531;28;20493;-66
2023/01/02 12:30:13;;;;;;;8.33;2.77;;;14.60;17.30;;;;;;5040908;28;21302;-67
2023/01/02 12:33:05;;;;;;;10.97;2.83;;;14.60;17.40;;;;;;5040801;28;20480;-67
2023/01/02 12:36:01;;;;;;;7.93;3.17;;;14.70;17.30;;;;;;5038740;28;20980;-67
2023/01/02 12:38:38;;;;;;;6.73;2.70;;;14.70;17.20;;;;;;5039124;28;20482;-70
2023/01/02 12:41:22;;;;;;;6.83;2.40;;;14.70;17.10;;;;;;5041668;28;20469;-68
2023/01/02 12:44:15;;;;;;;8.40;2.87;;;14.70;17.20;;;;;;5035322;28;20465;-64
2023/01/02 12:46:59;;;;;;;5.57;2.77;;;14.70;17.20;;;;;;5037469;28;20469;-69
2023/01/02 12:49:42;;;;;;;12.20;2.97;;;14.80;17.00;;;;;;5037778;28;20965;-67
2023/01/02 12:52:20;;;;;;;6.53;2.57;;;14.80;16.90;;;;;;5039944;28;20470;-65
2023/01/02 12:55:00;;;;;;;8.27;2.67;;;14.80;16.90;;;;;;5038419;28;20458;-69
2023/01/02 12:57:34;;;;;;;8.33;3.40;;;14.80;16.90;;;;;;5039080;28;20483;-69
2023/01/02 13:00:18;;;;;;;9.27;2.80;;;14.80;16.70;;;;;;5039189;28;20493;-77
2023/01/02 13:03:01;;;;;;;9.43;2.77;;;14.80;16.60;;;;;;5040042;28;20477;-75
2023/01/02 13:05:33;;;;;;;6.23;2.43;;;14.90;16.70;;;;;;5041398;28;20469;-67
2023/01/02 13:08:05;;;;;;;8.00;3.20;;;15.00;16.60;;;;;;5040622;28;20473;-65
2023/01/02 13:10:33;;;;;;;7.20;3.00;;;15.00;16.50;;;;;;5039884;28;20471;-68
2023/01/02 13:13:02;;;;;;;7.23;2.50;;;15.00;16.40;;;;;;5041753;28;20461;-78
2023/01/02 13:15:34;;;;;;;9.17;2.33;;;15.00;16.40;;;;;;5036378;28;20464;-69
2023/01/02 13:18:06;;;;;;;7.87;2.80;;;15.00;16.30;;;;;;5043042;28;20473;-72